Time;durP1;ratioP1;P1;durP2;ratioP2;P2;SDS_P1;SDS_P2;PMS_P1;PMS_P2;Temp;Humidity;BMP_temperature;BMP_pressure;BME280_temperature;BME280_humidity;BME280_pressure;Samples;Min_cycle;Max_cycle;Signal;HPM_P1;HPM_P2
2022/04/20 00:04:38;;;;;;;1.42;0.50;;;8.60;67.90;;;;;;10476568;28;20100;-90
2022/04/20 00:09:40;;;;;;;2.42;0.60;;;8.50;69.20;;;;;;10448866;28;20106;-89
2022/04/20 00:14:42;;;;;;;1.13;0.68;;;8.50;69.10;;;;;;10475249;28;20067;-90
2022/04/20 00:19:44;;;;;;;0.90;0.50;;;8.40;69.30;;;;;;10485095;28;20050;-89
2022/04/20 00:24:45;;;;;;;3.20;0.52;;;8.30;70.10;;;;;;10463587;28;20052;-90
2022/04/20 00:29:47;;;;;;;2.33;0.50;;;8.30;70.00;;;;;;10451038;28;20040;-90
2022/04/20 00:34:49;;;;;;;2.38;0.80;;;8.20;70.20;;;;;;10447308;28;20051;-89
2022/04/20 00:39:52;;;;;;;3.83;0.60;;;8.10;70.60;;;;;;10454324;28;20054;-89
2022/04/20 00:44:54;;;;;;;1.25;0.70;;;8.00;70.90;;;;;;10457959;28;20055;-88
2022/04/20 00:49:56;;;;;;;0.98;0.60;;;8.00;71.80;;;;;;10456804;28;20044;-88
2022/04/20 00:54:59;;;;;;;1.05;0.40;;;7.90;72.40;;;;;;10453893;28;20384;-89
2022/04/20 01:00:02;;;;;;;1.35;0.60;;;7.90;72.70;;;;;;10464390;28;20048;-89
2022/04/20 01:05:05;;;;;;;2.25;0.50;;;7.80;73.40;;;;;;10473642;28;20048;-88
2022/04/20 01:10:07;;;;;;;2.10;0.55;;;7.70;73.20;;;;;;10456425;28;20178;-88
2022/04/20 01:15:09;;;;;;;3.63;0.75;;;7.60;73.80;;;;;;10454314;28;20083;-89
2022/04/20 01:20:15;;;;;;;1.95;0.70;;;7.60;74.10;;;;;;10456543;28;20135;-89
2022/04/20 01:25:17;;;;;;;3.75;0.60;;;7.50;74.20;;;;;;10434147;28;20055;-89
2022/04/20 01:30:19;;;;;;;1.90;0.52;;;7.40;75.00;;;;;;10457364;28;20044;-88
2022/04/20 01:35:22;;;;;;;1.83;0.70;;;7.40;75.40;;;;;;10477433;28;20044;-89
2022/04/20 01:40:24;;;;;;;4.13;0.77;;;7.30;75.40;;;;;;10454271;28;20049;-89
2022/04/20 01:45:25;;;;;;;5.18;0.65;;;7.20;76.70;;;;;;10441015;28;21136;-88
2022/04/20 01:50:27;;;;;;;1.63;0.77;;;7.10;78.10;;;;;;10470474;28;20387;-89
2022/04/20 01:55:29;;;;;;;2.17;0.70;;;7.10;79.00;;;;;;10451777;28;20068;-88
2022/04/20 02:00:31;;;;;;;2.63;0.68;;;6.90;82.00;;;;;;10437343;28;20040;-88
2022/04/20 02:05:33;;;;;;;2.50;0.82;;;6.80;82.30;;;;;;10430847;28;20055;-88
2022/04/20 02:10:35;;;;;;;0.85;0.73;;;6.70;83.10;;;;;;10413019;28;20049;-89
2022/04/20 02:15:38;;;;;;;5.32;0.90;;;6.70;84.20;;;;;;10388387;28;20084;-89
2022/04/20 02:20:40;;;;;;;2.65;0.82;;;6.60;84.40;;;;;;10408637;28;20055;-89
2022/04/20 02:25:41;;;;;;;4.00;0.80;;;6.50;85.80;;;;;;10412076;28;21056;-89
2022/04/20 02:30:44;;;;;;;1.58;0.70;;;6.40;87.50;;;;;;10414351;28;20064;-89
2022/04/20 02:35:46;;;;;;;3.47;0.90;;;6.40;89.00;;;;;;10432878;28;20049;-89
2022/04/20 02:40:51;;;;;;;8.02;1.00;;;6.20;89.50;;;;;;10427322;28;20049;-88
2022/04/20 02:45:53;;;;;;;3.15;0.70;;;6.10;90.10;;;;;;10410669;28;20059;-90
2022/04/20 02:50:54;;;;;;;2.95;0.90;;;6.10;90.50;;;;;;10414888;28;20101;-88
2022/04/20 02:55:56;;;;;;;1.85;0.60;;;6.10;90.60;;;;;;10403127;28;20084;-87
2022/04/20 03:01:00;;;;;;;1.90;0.70;;;6.00;90.40;;;;;;10415370;28;20049;-88
2022/04/20 03:06:02;;;;;;;1.67;0.70;;;6.00;90.50;;;;;;10395703;28;20056;-89
2022/04/20 03:11:04;;;;;;;2.47;0.60;;;5.90;91.00;;;;;;10397985;28;20060;-89
2022/04/20 03:16:06;;;;;;;4.05;0.90;;;5.90;90.70;;;;;;10428447;28;20053;-89
2022/04/20 03:21:07;;;;;;;0.77;0.50;;;5.80;90.70;;;;;;10398467;28;20053;-88
2022/04/20 03:26:10;;;;;;;3.45;0.60;;;5.70;90.60;;;;;;10415700;28;20072;-88
2022/04/20 03:31:12;;;;;;;1.63;0.75;;;5.70;92.40;;;;;;10412822;28;20075;-88
2022/04/20 03:36:15;;;;;;;3.13;0.70;;;5.70;94.20;;;;;;10413018;28;20050;-89
2022/04/20 03:41:16;;;;;;;2.35;0.60;;;5.50;96.00;;;;;;10412221;28;20060;-89
2022/04/20 03:46:18;;;;;;;4.90;0.55;;;5.50;96.30;;;;;;10402814;28;20044;-88
2022/04/20 03:51:20;;;;;;;4.82;0.90;;;5.50;97.00;;;;;;10428726;28;20495;-89
2022/04/20 03:56:22;;;;;;;2.75;1.00;;;5.40;97.40;;;;;;10397193;28;20083;-89
2022/04/20 04:01:24;;;;;;;5.28;1.20;;;5.30;96.70;;;;;;10410384;28;20041;-89
2022/04/20 04:06:27;;;;;;;5.03;0.88;;;5.20;96.60;;;;;;10411615;28;20478;-89
2022/04/20 04:11:28;;;;;;;1.27;0.70;;;5.10;97.50;;;;;;10394598;28;20400;-88
2022/04/20 04:16:34;;;;;;;1.70;0.70;;;5.10;98.40;;;;;;10409672;28;20037;-87
2022/04/20 04:21:37;;;;;;;1.88;0.80;;;5.00;98.00;;;;;;10414234;28;20055;-87
2022/04/20 04:26:40;;;;;;;1.58;0.82;;;5.00;97.50;;;;;;10431815;28;20399;-87
2022/04/20 04:31:42;;;;;;;2.67;0.95;;;4.90;97.40;;;;;;10424878;28;20047;-88
2022/04/20 04:36:44;;;;;;;3.88;0.73;;;4.90;99.50;;;;;;10415615;28;20052;-87
2022/04/20 04:41:49;;;;;;;4.90;1.17;;;5.00;99.90;;;;;;10420679;28;20059;-87
2022/04/20 04:52:12;;;;;;;3.35;0.90;;;5.00;99.10;;;;;;10423930;28;20136;-87
2022/04/20 04:57:14;;;;;;;6.97;0.80;;;5.00;99.60;;;;;;10394027;28;20139;-88
2022/04/20 05:02:16;;;;;;;6.10;1.60;;;5.00;99.20;;;;;;10395453;28;20045;-87
2022/04/20 05:07:18;;;;;;;3.63;0.73;;;5.10;98.80;;;;;;10410028;28;20053;-87
2022/04/20 05:12:20;;;;;;;5.32;0.77;;;5.20;98.90;;;;;;10427599;28;20052;-87
2022/04/20 05:17:22;;;;;;;1.67;0.70;;;5.40;97.80;;;;;;10428403;28;20044;-88
2022/04/20 05:22:25;;;;;;;2.88;0.70;;;5.50;95.40;;;;;;10389277;28;20051;-88
2022/04/20 05:27:26;;;;;;;2.15;0.68;;;5.60;94.60;;;;;;10412097;28;20133;-88
2022/04/20 05:32:28;;;;;;;3.40;1.05;;;5.80;93.90;;;;;;10391545;28;20050;-88
2022/04/20 05:42:57;;;;;;;2.72;0.82;;;6.00;91.20;;;;;;10406910;28;20387;-89
2022/04/20 05:47:59;;;;;;;2.15;0.70;;;6.20;90.90;;;;;;10384159;28;21166;-88
2022/04/20 05:53:01;;;;;;;2.50;0.95;;;6.30;90.90;;;;;;10408855;28;20052;-88
2022/04/20 05:58:03;;;;;;;1.27;0.60;;;6.40;88.20;;;;;;10392886;28;20572;-87
2022/04/20 06:03:07;;;;;;;1.38;0.60;;;6.60;89.20;;;;;;10410617;28;20167;-87
2022/04/20 06:08:09;;;;;;;2.13;0.73;;;6.80;87.80;;;;;;10449684;28;20238;-88
2022/04/20 06:13:10;;;;;;;1.58;0.70;;;7.00;86.30;;;;;;10469816;28;20042;-89
2022/04/20 06:18:12;;;;;;;5.85;0.65;;;7.10;84.10;;;;;;10382294;28;20054;-88
2022/04/20 06:23:14;;;;;;;4.10;0.85;;;7.30;82.60;;;;;;10439047;28;20048;-88
2022/04/20 06:28:16;;;;;;;3.78;0.70;;;7.40;82.40;;;;;;10450573;28;20048;-88
2022/04/20 06:33:18;;;;;;;1.65;0.60;;;7.60;82.80;;;;;;10437132;28;20049;-89
2022/04/20 06:38:21;;;;;;;1.25;0.65;;;7.70;80.90;;;;;;10432186;28;20049;-88
2022/04/20 06:43:27;;;;;;;2.53;0.80;;;7.90;79.00;;;;;;10442142;28;20044;-88
2022/04/20 06:48:29;;;;;;;0.98;0.43;;;8.10;77.90;;;;;;10431774;28;20506;-88
2022/04/20 06:58:52;;;;;;;4.93;0.75;;;8.40;76.10;;;;;;10465266;28;20048;-88
2022/04/20 07:03:53;;;;;;;2.17;0.70;;;8.60;74.90;;;;;;10460957;28;20335;-89
2022/04/20 07:08:55;;;;;;;1.75;0.57;;;8.80;73.80;;;;;;10445684;28;20052;-88
2022/04/20 07:13:57;;;;;;;1.25;0.70;;;9.00;71.90;;;;;;10429514;28;20774;-88
2022/04/20 07:18:59;;;;;;;1.58;0.60;;;9.10;71.40;;;;;;10464018;28;20044;-88
2022/04/20 07:24:01;;;;;;;1.42;0.60;;;9.20;70.90;;;;;;10470738;28;20126;-89
2022/04/20 07:29:03;;;;;;;1.48;0.98;;;9.40;70.70;;;;;;10441762;28;20127;-88
2022/04/20 07:34:05;;;;;;;3.63;1.48;;;9.60;71.10;;;;;;10439227;28;20048;-88
2022/04/20 07:39:06;;;;;;;3.28;0.80;;;9.80;69.30;;;;;;10437043;28;20044;-90
2022/04/20 07:44:08;;;;;;;3.92;0.60;;;10.00;67.90;;;;;;10439004;28;20103;-89
2022/04/20 07:54:31;;;;;;;1.83;0.65;;;10.40;65.70;;;;;;10466442;28;20047;-89
2022/04/20 07:59:33;;;;;;;1.08;0.60;;;10.50;62.30;;;;;;10477053;28;20055;-89
2022/04/20 08:04:35;;;;;;;1.02;0.88;;;10.80;61.00;;;;;;10441874;28;20047;-88
2022/04/20 08:09:37;;;;;;;2.70;0.70;;;10.90;59.30;;;;;;10479484;28;20579;-88
2022/04/20 08:14:39;;;;;;;1.08;0.60;;;11.30;61.60;;;;;;10465377;28;20048;-88
2022/04/20 08:19:41;;;;;;;2.00;1.10;;;11.40;58.70;;;;;;10467561;28;20041;-88
2022/04/20 08:24:43;;;;;;;2.47;0.80;;;11.60;58.00;;;;;;10454387;28;20104;-88
2022/04/20 08:29:46;;;;;;;1.65;0.52;;;11.60;57.10;;;;;;10469177;28;20151;-88
2022/04/20 08:34:48;;;;;;;1.75;0.60;;;11.90;55.90;;;;;;10446875;28;20106;-88
2022/04/20 08:40:06;;;;;;;1.48;0.70;;;12.00;54.70;;;;;;10480526;28;20052;-88
2022/04/20 08:45:09;;;;;;;1.48;0.70;;;12.10;53.80;;;;;;10483629;28;20049;-89
2022/04/20 08:50:11;;;;;;;1.17;0.73;;;12.10;54.60;;;;;;10441242;28;20049;-89
2022/04/20 08:55:15;;;;;;;1.67;0.60;;;12.30;54.20;;;;;;10472370;28;20055;-89
2022/04/20 09:00:28;;;;;;;1.40;0.50;;;12.40;54.20;;;;;;10460639;28;20083;-88
2022/04/20 09:05:34;;;;;;;1.20;0.43;;;12.70;54.00;;;;;;10468004;28;20045;-88
2022/04/20 09:10:36;;;;;;;2.42;0.60;;;12.80;52.80;;;;;;10469160;28;20055;-89
2022/04/20 09:15:40;;;;;;;1.15;0.70;;;13.00;52.40;;;;;;10452573;28;20052;-88
2022/04/20 09:20:42;;;;;;;1.23;0.60;;;13.20;52.50;;;;;;10440848;28;20045;-89
2022/04/20 09:25:49;;;;;;;1.48;0.70;;;13.30;51.70;;;;;;10476983;28;20053;-88
2022/04/20 09:30:54;;;;;;;3.10;0.60;;;13.30;52.20;;;;;;10471730;28;20092;-90
2022/04/20 09:35:57;;;;;;;2.55;0.70;;;13.40;51.30;;;;;;10461112;28;20021;-89
2022/04/20 09:41:09;;;;;;;2.08;0.52;;;13.60;51.40;;;;;;10461058;28;20044;-89
2022/04/20 09:51:37;;;;;;;1.83;0.60;;;13.80;49.10;;;;;;10453443;28;20479;-90
2022/04/20 09:56:38;;;;;;;0.85;0.47;;;13.90;48.40;;;;;;10437126;28;20037;-90
2022/04/20 10:01:47;;;;;;;3.60;0.50;;;14.10;48.80;;;;;;10477836;28;20044;-88
2022/04/20 10:06:50;;;;;;;1.73;0.50;;;14.20;47.70;;;;;;10472225;28;20102;-90
2022/04/20 10:11:52;;;;;;;0.65;0.40;;;14.30;46.30;;;;;;10446886;28;20128;-88
2022/04/20 10:16:55;;;;;;;1.20;0.50;;;14.50;45.70;;;;;;10450792;28;20060;-88
2022/04/20 10:21:58;;;;;;;2.17;0.40;;;14.70;46.70;;;;;;10456620;28;20049;-88
2022/04/20 10:27:08;;;;;;;1.77;0.70;;;15.00;45.40;;;;;;10466532;28;20120;-88
2022/04/20 10:32:26;;;;;;;2.85;0.50;;;15.40;43.20;;;;;;10458682;28;20071;-88
2022/04/20 10:37:30;;;;;;;7.10;0.57;;;15.90;43.30;;;;;;10480946;28;20045;-89
2022/04/20 10:42:33;;;;;;;1.27;0.68;;;16.30;42.00;;;;;;10461663;28;20116;-89
2022/04/20 10:47:38;;;;;;;1.92;0.43;;;16.60;42.20;;;;;;10436326;28;20105;-88
2022/04/20 10:52:46;;;;;;;0.97;0.40;;;16.80;40.30;;;;;;10441093;28;20052;-88
2022/04/20 10:57:48;;;;;;;2.03;0.65;;;16.80;40.70;;;;;;10438862;28;20038;-89
2022/04/20 11:02:52;;;;;;;0.95;0.40;;;17.00;40.10;;;;;;10434437;28;20426;-89
2022/04/20 11:08:11;;;;;;;1.15;0.52;;;17.20;40.00;;;;;;10440124;28;20044;-90
2022/04/20 11:19:07;;;;;;;0.88;0.40;;;17.60;39.90;;;;;;10445228;28;20052;-90
2022/04/20 11:24:11;;;;;;;0.98;0.65;;;17.70;39.80;;;;;;10436067;28;20068;-88
2022/04/20 11:29:17;;;;;;;1.42;0.40;;;17.80;39.70;;;;;;10452231;28;20063;-88
2022/04/20 11:34:20;;;;;;;0.70;0.50;;;17.90;38.30;;;;;;10462379;28;20902;-88
2022/04/20 11:39:24;;;;;;;2.17;0.50;;;18.10;39.90;;;;;;10478092;28;20055;-88
2022/04/20 11:44:31;;;;;;;1.67;0.50;;;18.30;39.70;;;;;;10444175;28;20070;-88
2022/04/20 11:49:48;;;;;;;4.43;0.47;;;18.50;40.00;;;;;;10466795;28;20048;-88
2022/04/20 11:54:50;;;;;;;1.05;0.50;;;18.70;38.70;;;;;;10469753;28;20050;-88
2022/04/20 11:59:52;;;;;;;1.63;0.50;;;18.70;38.70;;;;;;10480922;28;20116;-88
2022/04/20 12:05:09;;;;;;;0.43;0.38;;;18.90;38.40;;;;;;10456264;28;20128;-88
2022/04/20 12:10:11;;;;;;;1.27;0.50;;;19.10;38.10;;;;;;10437169;28;20083;-88
2022/04/20 12:15:13;;;;;;;1.50;0.40;;;19.30;38.30;;;;;;10457367;28;20041;-88
2022/04/20 12:20:15;;;;;;;3.55;0.43;;;19.40;39.10;;;;;;10443463;28;20060;-87
2022/04/20 12:25:19;;;;;;;5.35;0.55;;;19.40;37.70;;;;;;10475602;28;20781;-87
2022/04/20 12:30:36;;;;;;;1.55;0.30;;;19.60;37.50;;;;;;10475343;28;20051;-88
2022/04/20 12:35:38;;;;;;;2.92;0.40;;;19.70;37.70;;;;;;10431060;28;20047;-88
2022/04/20 12:40:40;;;;;;;0.65;0.32;;;19.80;37.20;;;;;;10440779;28;20519;-87
2022/04/20 12:45:43;;;;;;;0.65;0.30;;;20.00;37.40;;;;;;10472682;28;20075;-87
2022/04/20 12:50:46;;;;;;;2.60;0.60;;;20.30;38.10;;;;;;10436276;28;20053;-87
2022/04/20 13:02:01;;;;;;;0.98;0.30;;;20.30;38.60;;;;;;10435049;28;20075;-87
2022/04/20 13:06:48;;;;;;;0.43;0.30;;;20.70;37.70;;;;;;10469539;28;20686;-87
2022/04/20 13:11:50;;;;;;;0.68;0.40;;;21.00;36.80;;;;;;10458104;28;20518;-87
2022/04/20 13:16:52;;;;;;;0.93;0.32;;;20.80;36.90;;;;;;10464475;28;20052;-88
2022/04/20 13:21:53;;;;;;;0.90;0.30;;;21.00;36.50;;;;;;10448735;28;20048;-87
2022/04/20 13:32:16;;;;;;;1.70;0.55;;;21.00;35.90;;;;;;10477407;28;20114;-87
2022/04/20 13:37:18;;;;;;;3.25;0.47;;;21.20;36.40;;;;;;10431840;28;20071;-89
2022/04/20 13:42:33;;;;;;;2.63;0.47;;;21.30;37.00;;;;;;10244359;28;20052;-91
2022/04/20 13:47:35;;;;;;;0.40;0.30;;;21.40;38.50;;;;;;10351304;28;20048;-91
2022/04/20 13:53:11;;;;;;;0.40;0.40;;;21.40;37.20;;;;;;10242934;28;20237;-92
2022/04/20 13:59:38;;;;;;;1.55;0.30;;;21.80;37.00;;;;;;10047721;28;20134;-93
2022/04/20 14:05:59;;;;;;;0.38;0.30;;;21.90;37.30;;;;;;10193431;28;20050;-93
2022/04/20 14:11:42;;;;;;;1.73;0.30;;;22.30;36.90;;;;;;10236495;28;20037;-92
2022/04/20 14:16:48;;;;;;;0.70;0.30;;;22.60;36.00;;;;;;10204625;28;20057;-92
2022/04/20 14:21:53;;;;;;;2.65;0.47;;;22.40;36.00;;;;;;10177514;28;20107;-92
2022/04/20 14:32:28;;;;;;;1.45;0.50;;;;;;;;;;10476587;28;20094;-90
2022/04/20 14:37:30;;;;;;;0.50;0.40;;;23.20;50.30;;;;;;10476306;28;20055;-90
2022/04/20 14:42:35;;;;;;;1.00;0.50;;;23.10;44.90;;;;;;10466682;28;20053;-91
2022/04/20 14:47:39;;;;;;;2.95;0.30;;;23.10;43.70;;;;;;10477930;28;20052;-91
2022/04/20 14:52:43;;;;;;;2.38;0.40;;;23.30;46.20;;;;;;10433090;28;20067;-91
2022/04/20 14:57:45;;;;;;;1.30;0.50;;;23.00;45.30;;;;;;10447334;28;20108;-91
2022/04/20 15:02:52;;;;;;;2.65;0.40;;;23.30;43.80;;;;;;10400443;28;20052;-91
2022/04/20 15:07:56;;;;;;;6.13;0.30;;;23.20;43.30;;;;;;10422826;28;20116;-92
2022/04/20 15:12:59;;;;;;;2.72;0.30;;;23.40;44.50;;;;;;10415546;28;20547;-90
2022/04/20 15:18:00;;;;;;;1.48;0.40;;;23.30;46.50;;;;;;10428110;28;20052;-91
2022/04/20 15:23:02;;;;;;;1.70;0.40;;;23.40;46.90;;;;;;10429507;28;20049;-90
2022/04/20 15:28:05;;;;;;;2.28;0.30;;;23.10;48.20;;;;;;10431859;28;20049;-90
2022/04/20 15:33:07;;;;;;;0.50;0.20;;;22.90;49.10;;;;;;10427372;28;20049;-91
2022/04/20 15:38:09;;;;;;;1.02;0.30;;;22.50;50.80;;;;;;10415852;28;20120;-90
2022/04/20 15:43:12;;;;;;;3.78;0.80;;;;;;;;;;10391632;28;20114;-90
2022/04/20 15:48:17;;;;;;;1.58;0.40;;;;;;;;;;10407502;28;20113;-91
2022/04/20 15:53:19;;;;;;;2.63;0.30;;;;;;;;;;10415780;28;21948;-90
2022/04/20 16:03:43;;;;;;;0.50;0.30;;;;;;;;;;10430022;28;20049;-90
2022/04/20 16:08:45;;;;;;;2.13;0.30;;;21.50;69.50;;;;;;10447751;28;20040;-90
2022/04/20 16:13:48;;;;;;;0.40;0.30;;;21.40;39.30;;;;;;10441334;28;20037;-90
2022/04/20 16:18:51;;;;;;;0.40;0.20;;;21.40;39.60;;;;;;10456667;28;20634;-88
2022/04/20 16:23:53;;;;;;;0.30;0.20;;;21.20;39.80;;;;;;10485628;28;20048;-87
2022/04/20 16:28:55;;;;;;;1.02;0.20;;;21.10;39.50;;;;;;10490710;28;20079;-87
2022/04/20 16:33:57;;;;;;;0.80;0.32;;;21.20;41.20;;;;;;10469699;28;20064;-88
2022/04/20 16:38:58;;;;;;;1.67;0.40;;;21.00;40.40;;;;;;10494090;28;20044;-89
2022/04/20 16:44:00;;;;;;;5.75;0.30;;;20.90;40.70;;;;;;10485085;28;20067;-88
2022/04/20 16:49:02;;;;;;;0.60;0.20;;;20.90;40.70;;;;;;10481655;28;20067;-90
2022/04/20 16:54:04;;;;;;;1.42;0.40;;;20.80;41.10;;;;;;10470758;28;20407;-87
2022/04/20 16:59:06;;;;;;;1.35;0.40;;;20.70;42.30;;;;;;10491377;28;20108;-88
2022/04/20 17:04:09;;;;;;;1.67;0.45;;;20.50;41.60;;;;;;10453058;28;20041;-88
2022/04/20 17:09:11;;;;;;;1.77;0.30;;;20.20;42.10;;;;;;10469586;28;20044;-88
2022/04/20 17:14:13;;;;;;;1.20;0.30;;;20.10;43.20;;;;;;10488732;28;20060;-87
2022/04/20 17:19:16;;;;;;;3.55;0.40;;;19.70;43.20;;;;;;10439100;28;20422;-87
2022/04/20 17:29:39;;;;;;;1.70;0.43;;;19.20;45.20;;;;;;10480637;28;20051;-89
2022/04/20 17:34:42;;;;;;;0.70;0.50;;;18.70;46.20;;;;;;10462234;28;20053;-89
2022/04/20 17:39:44;;;;;;;0.57;0.30;;;18.20;47.20;;;;;;10461050;28;20516;-88
2022/04/20 17:44:45;;;;;;;0.88;0.40;;;18.00;48.00;;;;;;10455171;28;20144;-88
2022/04/20 17:49:49;;;;;;;2.90;0.30;;;17.60;48.70;;;;;;10449012;28;20056;-88
2022/04/20 17:54:51;;;;;;;0.73;0.30;;;17.30;49.80;;;;;;10454400;28;20135;-87
2022/04/20 17:59:53;;;;;;;0.80;0.40;;;16.90;50.70;;;;;;10465679;28;20060;-87
2022/04/20 18:04:55;;;;;;;2.30;0.50;;;16.60;51.70;;;;;;10461206;28;20044;-88
2022/04/20 18:09:57;;;;;;;1.20;0.40;;;16.40;52.70;;;;;;10474597;28;20059;-87
2022/04/20 18:14:58;;;;;;;0.70;0.40;;;16.10;53.40;;;;;;10458031;28;20063;-88
2022/04/20 18:20:05;;;;;;;2.05;0.43;;;15.90;54.20;;;;;;10457860;28;20059;-88
2022/04/20 18:25:07;;;;;;;2.60;0.40;;;15.60;55.20;;;;;;10480642;28;20063;-87
2022/04/20 18:30:10;;;;;;;6.57;0.60;;;15.40;55.70;;;;;;10461137;28;20139;-87
2022/04/20 18:35:13;;;;;;;2.58;0.50;;;15.10;56.60;;;;;;10453761;28;20446;-87
2022/04/20 18:40:15;;;;;;;0.63;0.40;;;14.90;57.20;;;;;;10449031;28;20044;-87
2022/04/20 18:51:32;;;;;;;1.35;0.50;;;14.60;59.40;;;;;;10466466;28;20047;-89
2022/04/20 19:01:55;;;;;;;0.73;0.40;;;14.10;59.60;;;;;;10478671;28;20048;-89
2022/04/20 19:06:57;;;;;;;5.38;0.60;;;13.90;60.00;;;;;;10414024;28;20140;-89
2022/04/20 19:12:00;;;;;;;3.10;0.88;;;13.80;60.30;;;;;;10400222;28;20057;-88
2022/04/20 19:17:03;;;;;;;0.80;0.30;;;13.70;60.80;;;;;;10413975;28;20052;-88
2022/04/20 19:22:05;;;;;;;1.27;0.80;;;13.50;61.40;;;;;;10431373;28;20064;-88
2022/04/20 19:27:08;;;;;;;0.85;0.30;;;13.40;62.40;;;;;;10434090;28;20164;-88
2022/04/20 19:32:10;;;;;;;2.80;0.30;;;13.30;62.30;;;;;;10411302;28;20048;-89
2022/04/20 19:37:12;;;;;;;4.07;0.38;;;13.10;62.70;;;;;;10396854;28;20060;-88
2022/04/20 19:42:16;;;;;;;0.60;0.40;;;13.00;63.50;;;;;;10397707;28;20049;-88
2022/04/20 19:47:19;;;;;;;0.73;0.30;;;12.90;63.70;;;;;;10418386;28;20097;-88
2022/04/20 19:52:22;;;;;;;1.23;0.35;;;12.80;63.90;;;;;;10435950;28;20103;-88
2022/04/20 19:57:24;;;;;;;2.28;0.38;;;12.70;64.50;;;;;;10423012;28;20086;-88
2022/04/20 20:02:26;;;;;;;1.50;0.30;;;12.60;65.10;;;;;;10421548;28;20053;-88
2022/04/20 20:07:29;;;;;;;3.30;0.52;;;12.50;65.70;;;;;;10456746;28;20040;-89
2022/04/20 20:12:32;;;;;;;1.08;0.38;;;12.50;66.00;;;;;;10467550;28;20478;-88
2022/04/20 20:17:34;;;;;;;2.72;0.52;;;12.30;66.40;;;;;;10466756;28;20104;-88
2022/04/20 20:22:35;;;;;;;2.45;0.50;;;12.30;67.00;;;;;;10462705;28;20048;-88
2022/04/20 20:32:58;;;;;;;3.22;0.50;;;12.00;68.80;;;;;;10482915;28;20075;-89
2022/04/20 20:38:01;;;;;;;0.93;0.50;;;11.90;69.50;;;;;;10461417;28;20104;-89
2022/04/20 20:43:02;;;;;;;2.67;0.77;;;11.80;70.30;;;;;;10450027;28;20268;-89
2022/04/20 20:48:04;;;;;;;4.75;0.70;;;11.70;70.90;;;;;;10421088;28;20063;-89
2022/04/20 20:53:08;;;;;;;4.75;1.05;;;11.60;71.40;;;;;;10441419;28;20048;-89
2022/04/20 20:58:13;;;;;;;2.45;0.70;;;11.60;71.70;;;;;;10438728;28;20075;-89
2022/04/20 21:03:15;;;;;;;2.45;0.60;;;11.50;72.40;;;;;;10447206;28;20147;-90
2022/04/20 21:08:17;;;;;;;2.78;1.42;;;11.40;73.40;;;;;;10448014;28;20058;-89
2022/04/20 21:13:20;;;;;;;1.17;0.77;;;11.30;74.20;;;;;;10452845;28;20041;-89
2022/04/20 21:18:22;;;;;;;3.80;1.08;;;11.20;74.90;;;;;;10460421;28;20050;-87
2022/04/20 21:23:24;;;;;;;3.65;0.90;;;11.10;75.70;;;;;;10474742;28;20079;-87
2022/04/20 21:28:26;;;;;;;2.83;0.90;;;11.00;77.00;;;;;;10476488;28;20206;-86
2022/04/20 21:33:27;;;;;;;1.73;1.05;;;10.90;78.00;;;;;;10459413;28;20026;-87
2022/04/20 21:38:29;;;;;;;1.25;0.90;;;10.80;77.90;;;;;;10458280;28;20048;-88
2022/04/20 21:43:34;;;;;;;3.22;1.35;;;10.70;78.80;;;;;;10402012;28;20049;-86
2022/04/20 21:48:37;;;;;;;1.58;1.08;;;10.80;79.40;;;;;;10298384;28;20087;-88
2022/04/20 21:53:39;;;;;;;2.42;0.93;;;10.60;80.70;;;;;;10353069;28;20112;-89
2022/04/20 21:58:41;;;;;;;2.20;1.10;;;10.50;81.30;;;;;;10368043;28;20073;-89
2022/04/20 22:09:37;;;;;;;2.08;1.00;;;10.40;83.10;;;;;;10344598;28;20042;-89
2022/04/20 22:14:43;;;;;;;3.75;1.20;;;10.30;83.20;;;;;;10421640;28;20495;-89
2022/04/20 22:19:45;;;;;;;2.25;1.17;;;10.30;83.50;;;;;;10416869;28;20065;-89
2022/04/20 22:24:48;;;;;;;1.92;1.02;;;10.30;84.10;;;;;;10416420;28;20530;-89
2022/04/20 22:29:50;;;;;;;3.72;1.10;;;10.20;85.00;;;;;;10441082;28;20045;-89
2022/04/20 22:34:55;;;;;;;3.85;1.27;;;10.10;84.40;;;;;;10401973;28;20049;-88
2022/04/20 22:39:57;;;;;;;3.42;1.00;;;10.10;84.40;;;;;;10439719;28;20044;-89
2022/04/20 22:45:02;;;;;;;4.75;1.35;;;10.00;85.40;;;;;;10415430;28;20060;-90
2022/04/20 22:50:04;;;;;;;3.05;1.20;;;9.90;85.70;;;;;;10421035;28;20075;-89
2022/04/20 22:55:06;;;;;;;2.13;1.13;;;9.80;86.40;;;;;;10414470;28;20044;-89
2022/04/20 23:00:09;;;;;;;5.57;1.65;;;9.80;87.00;;;;;;10404407;28;20037;-90
2022/04/20 23:05:11;;;;;;;3.22;1.17;;;9.80;87.60;;;;;;10436043;28;20139;-89
2022/04/20 23:10:13;;;;;;;1.92;1.02;;;9.70;89.00;;;;;;10454005;28;20054;-89
2022/04/20 23:15:15;;;;;;;3.72;1.55;;;9.60;89.10;;;;;;10458779;28;20052;-89
2022/04/20 23:20:17;;;;;;;6.32;1.33;;;9.60;88.90;;;;;;10459482;28;22909;-89
2022/04/20 23:30:39;;;;;;;2.80;1.23;;;9.60;89.10;;;;;;10477487;28;20055;-89
2022/04/20 23:35:41;;;;;;;5.05;1.70;;;9.50;89.70;;;;;;10462523;28;20041;-87
2022/04/20 23:40:43;;;;;;;3.10;1.52;;;9.40;89.80;;;;;;10477205;28;20048;-87
2022/04/20 23:45:45;;;;;;;3.35;1.55;;;9.40;90.10;;;;;;10464112;28;20372;-88
2022/04/20 23:50:48;;;;;;;3.10;1.38;;;9.40;90.20;;;;;;10479968;28;21095;-87
2022/04/20 23:55:52;;;;;;;2.47;1.10;;;9.30;90.30;;;;;;10474160;28;20110;-87
